createdAt,value
2023-03-11T00:00:37.158Z,2.90
2023-03-11T00:03:06.652Z,2.80
2023-03-11T00:05:36.223Z,2.80
2023-03-11T00:08:05.248Z,2.90
2023-03-11T00:10:36.413Z,3.00
2023-03-11T00:13:04.470Z,3.00
2023-03-11T00:15:32.227Z,3.00
2023-03-11T00:17:59.447Z,3.10
2023-03-11T00:20:28.021Z,3.10
2023-03-11T00:22:55.536Z,3.10
2023-03-11T00:25:24.803Z,3.10
2023-03-11T00:27:51.797Z,3.00
2023-03-11T00:30:20.387Z,3.00
2023-03-11T00:32:52.581Z,2.80
2023-03-11T00:35:24.280Z,2.80
2023-03-11T00:37:54.791Z,2.80
2023-03-11T00:40:23.121Z,2.80
2023-03-11T00:42:50.292Z,2.70
2023-03-11T00:45:17.735Z,2.70
2023-03-11T00:47:45.030Z,2.80
2023-03-11T00:50:17.972Z,2.80
2023-03-11T00:52:46.891Z,2.80
2023-03-11T00:55:15.887Z,2.80
2023-03-11T00:57:43.550Z,2.80
2023-03-11T01:00:15.473Z,2.80
2023-03-11T01:02:42.924Z,2.80
2023-03-11T01:05:10.746Z,2.80
2023-03-11T01:07:37.687Z,2.90
2023-03-11T01:10:06.369Z,2.90
2023-03-11T01:12:33.081Z,2.80
2023-03-11T01:14:59.982Z,2.80
2023-03-11T01:17:26.827Z,2.80
2023-03-11T01:19:53.654Z,2.80
2023-03-11T01:22:20.394Z,2.80
2023-03-11T01:24:47.155Z,2.80
2023-03-11T01:27:13.871Z,2.80
2023-03-11T01:29:40.631Z,2.80
2023-03-11T01:32:07.986Z,2.80
2023-03-11T01:34:36.235Z,2.90
2023-03-11T01:37:03.975Z,2.90
2023-03-11T01:39:30.720Z,2.90
2023-03-11T01:41:57.688Z,2.90
2023-03-11T01:44:24.579Z,3.00
2023-03-11T01:46:54.216Z,3.00
2023-03-11T01:49:22.528Z,3.00
2023-03-11T01:51:53.783Z,3.00
2023-03-11T01:54:25.600Z,2.90
2023-03-11T01:56:53.185Z,3.00
2023-03-11T01:59:24.089Z,2.90
2023-03-11T02:02:18.812Z,2.90
2023-03-11T02:04:46.459Z,2.90
2023-03-11T02:07:14.815Z,2.90
2023-03-11T02:09:42.024Z,2.80
2023-03-11T02:12:11.394Z,2.80
2023-03-11T02:14:41.937Z,2.80
2023-03-11T02:17:09.003Z,2.80
2023-03-11T02:19:38.682Z,2.90
2023-03-11T02:22:05.903Z,2.90
2023-03-11T02:24:35.760Z,2.80
2023-03-11T02:27:07.151Z,2.80
2023-03-11T02:29:34.439Z,2.80
2023-03-11T02:32:08.839Z,2.80
2023-03-11T02:34:38.327Z,2.80
2023-03-11T02:37:08.551Z,2.70
2023-03-11T02:39:36.723Z,2.70
2023-03-11T02:42:19.383Z,2.70
2023-03-11T02:44:54.969Z,2.60
2023-03-11T02:47:21.849Z,2.60
2023-03-11T02:49:49.218Z,2.60
2023-03-11T02:52:17.487Z,2.70
2023-03-11T02:54:44.195Z,2.60
2023-03-11T02:57:11.009Z,2.60
2023-03-11T02:59:37.803Z,2.60
2023-03-11T03:02:04.645Z,2.60
2023-03-11T03:04:31.409Z,2.60
2023-03-11T03:06:58.390Z,2.60
2023-03-11T03:09:25.096Z,2.50
2023-03-11T03:11:51.848Z,2.50
2023-03-11T03:14:18.659Z,2.40
2023-03-11T03:16:45.533Z,2.40
2023-03-11T03:19:12.265Z,2.40
2023-03-11T03:21:39.109Z,2.40
2023-03-11T03:24:06.066Z,2.40
2023-03-11T03:26:32.807Z,2.40
2023-03-11T03:28:59.605Z,2.40
2023-03-11T03:31:26.356Z,2.40
2023-03-11T03:33:53.150Z,2.30
2023-03-11T03:36:19.945Z,2.30
2023-03-11T03:38:46.722Z,2.20
2023-03-11T03:41:15.694Z,2.10
2023-03-11T03:43:42.560Z,2.20
2023-03-11T03:46:09.322Z,2.10
2023-03-11T03:48:36.230Z,2.10
2023-03-11T03:51:07.874Z,2.10
2023-03-11T03:53:36.180Z,2.00
2023-03-11T03:56:15.176Z,2.00
2023-03-11T03:58:42.078Z,2.00
2023-03-11T04:01:10.256Z,2.00
2023-03-11T04:03:39.008Z,1.90
2023-03-11T04:06:07.996Z,1.90
2023-03-11T04:08:34.854Z,1.80
2023-03-11T04:11:01.692Z,1.80
2023-03-11T04:13:28.439Z,1.80
2023-03-11T04:15:55.194Z,2.00
2023-03-11T04:18:22.898Z,1.90
2023-03-11T04:20:49.911Z,1.90
2023-03-11T04:23:17.074Z,1.90
2023-03-11T04:25:43.794Z,1.90
2023-03-11T04:28:10.625Z,1.90
2023-03-11T04:30:37.450Z,1.90
2023-03-11T04:33:04.272Z,1.90
2023-03-11T04:35:31.016Z,2.00
2023-03-11T04:37:57.933Z,2.00
2023-03-11T04:40:24.740Z,1.90
2023-03-11T04:42:52.918Z,1.90
2023-03-11T04:45:19.779Z,1.80
2023-03-11T04:47:50.923Z,1.80
2023-03-11T04:50:18.884Z,1.80
2023-03-11T04:52:46.330Z,1.80
2023-03-11T04:55:13.944Z,1.70
2023-03-11T04:57:42.084Z,1.70
2023-03-11T05:00:11.641Z,1.60
2023-03-11T05:02:39.770Z,1.60
2023-03-11T05:05:08.501Z,1.60
2023-03-11T05:07:36.399Z,1.70
2023-03-11T05:10:04.466Z,1.70
2023-03-11T05:12:31.254Z,1.60
2023-03-11T05:14:58.008Z,1.70
2023-03-11T05:17:25.107Z,1.70
2023-03-11T05:19:53.762Z,1.70
2023-03-11T05:22:21.340Z,1.70
2023-03-11T05:24:48.403Z,1.80
2023-03-11T05:27:19.874Z,1.80
2023-03-11T05:29:46.917Z,1.70
2023-03-11T05:32:13.993Z,1.80
2023-03-11T05:34:41.020Z,1.80
2023-03-11T05:37:07.908Z,1.90
2023-03-11T05:39:35.063Z,2.00
2023-03-11T05:42:01.854Z,2.00
2023-03-11T05:44:28.736Z,2.00
2023-03-11T05:46:55.561Z,2.00
2023-03-11T05:49:22.912Z,2.00
2023-03-11T05:51:50.546Z,2.10
2023-03-11T05:54:17.919Z,2.10
2023-03-11T05:56:46.439Z,2.10
2023-03-11T05:59:16.488Z,2.20
2023-03-11T06:01:44.383Z,2.10
2023-03-11T06:04:11.940Z,2.20
2023-03-11T06:06:41.207Z,2.30
2023-03-11T06:09:12.203Z,2.20
2023-03-11T06:11:39.175Z,2.20
2023-03-11T06:14:06.062Z,2.20
2023-03-11T06:16:32.950Z,2.10
2023-03-11T06:19:02.620Z,2.10
2023-03-11T06:21:29.644Z,2.10
2023-03-11T06:23:56.413Z,2.10
2023-03-11T06:26:24.214Z,2.20
2023-03-11T06:28:52.393Z,2.20
2023-03-11T06:31:24.363Z,2.30
2023-03-11T06:33:52.741Z,2.40
2023-03-11T06:36:20.405Z,2.50
2023-03-11T06:38:48.475Z,2.50
2023-03-11T06:41:15.605Z,2.50
2023-03-11T06:43:42.445Z,2.60
2023-03-11T06:46:15.667Z,2.60
2023-03-11T06:48:42.878Z,2.60
2023-03-11T06:51:10.976Z,2.70
2023-03-11T06:53:37.742Z,2.60
2023-03-11T06:56:10.316Z,2.50
2023-03-11T06:58:38.384Z,2.60
2023-03-11T07:01:13.725Z,2.60
2023-03-11T07:03:40.973Z,2.60
2023-03-11T07:06:15.224Z,2.50
2023-03-11T07:08:42.050Z,2.60
2023-03-11T07:11:18.112Z,2.60
2023-03-11T07:13:45.469Z,2.60
2023-03-11T07:16:21.334Z,2.70
2023-03-11T07:18:49.878Z,2.60
2023-03-11T07:21:20.034Z,2.70
2023-03-11T07:23:46.920Z,2.80
2023-03-11T07:26:15.509Z,2.80
2023-03-11T07:28:42.784Z,2.70
2023-03-11T07:31:23.386Z,2.80
2023-03-11T07:33:50.583Z,2.80
2023-03-11T07:36:20.621Z,2.80
2023-03-11T07:38:48.052Z,2.90
2023-03-11T07:41:16.194Z,3.00
2023-03-11T07:43:43.855Z,3.10
2023-03-11T07:46:14.270Z,3.20
2023-03-11T07:48:41.411Z,3.20
2023-03-11T07:51:21.390Z,3.20
2023-03-11T07:53:49.319Z,3.20
2023-03-11T07:56:17.443Z,3.10
2023-03-11T07:58:45.913Z,3.10
2023-03-11T08:01:21.657Z,3.20
2023-03-11T08:03:51.162Z,3.30
2023-03-11T08:06:24.229Z,3.20
2023-03-11T08:08:51.716Z,3.30
2023-03-11T08:11:20.770Z,3.20
2023-03-11T08:13:48.078Z,3.20
2023-03-11T08:16:16.776Z,3.30
2023-03-11T08:18:44.128Z,3.40
2023-03-11T08:21:19.238Z,3.50
2023-03-11T08:23:49.513Z,3.40
2023-03-11T08:26:19.348Z,3.40
2023-03-11T08:28:47.838Z,3.50
2023-03-11T08:31:24.314Z,3.50
2023-03-11T08:33:53.438Z,3.60
2023-03-11T08:36:21.090Z,3.70
2023-03-11T08:38:48.465Z,3.80
2023-03-11T08:41:15.913Z,3.80
2023-03-11T08:43:44.512Z,3.80
2023-03-11T08:46:36.463Z,3.90
2023-03-11T08:49:05.184Z,4.00
2023-03-11T08:51:33.883Z,4.10
2023-03-11T08:54:01.430Z,4.10
2023-03-11T08:56:28.615Z,4.30
2023-03-11T08:58:55.309Z,4.40
2023-03-11T09:01:23.723Z,4.60
2023-03-11T09:03:51.344Z,4.70
2023-03-11T09:06:18.517Z,4.90
2023-03-11T09:08:45.923Z,5.00
2023-03-11T09:11:13.620Z,5.10
2023-03-11T09:13:41.882Z,5.20
2023-03-11T09:16:23.885Z,5.30
2023-03-11T09:18:50.819Z,5.50
2023-03-11T09:21:17.873Z,5.80
2023-03-11T09:23:44.788Z,5.90
2023-03-11T09:26:12.647Z,5.80
2023-03-11T09:28:39.938Z,6.00
2023-03-11T09:31:07.524Z,6.10
2023-03-11T09:33:41.665Z,6.10
2023-03-11T09:36:12.790Z,6.10
2023-03-11T09:38:39.973Z,5.90
2023-03-11T09:41:18.806Z,5.70
2023-03-11T09:43:57.025Z,5.80
2023-03-11T09:46:29.930Z,5.90
2023-03-11T09:49:09.638Z,5.80
2023-03-11T09:51:46.022Z,5.70
2023-03-11T09:54:14.008Z,5.60
2023-03-11T09:56:44.452Z,5.50
2023-03-11T09:59:30.306Z,5.40
2023-03-11T10:01:57.334Z,5.40
2023-03-11T10:04:30.313Z,5.40
2023-03-11T10:06:59.406Z,5.50
2023-03-11T10:09:33.674Z,5.70
2023-03-11T10:12:25.066Z,6.10
2023-03-11T10:15:13.027Z,6.00
2023-03-11T10:17:48.515Z,6.00
2023-03-11T10:20:41.515Z,5.90
2023-03-11T10:23:51.619Z,6.20
2023-03-11T10:26:45.346Z,6.40
2023-03-11T10:29:54.537Z,6.60
2023-03-11T10:32:35.007Z,6.60
2023-03-11T10:35:16.415Z,6.60
2023-03-11T10:37:50.041Z,6.70
2023-03-11T10:40:34.646Z,6.80
2023-03-11T10:43:05.982Z,6.70
2023-03-11T10:45:38.860Z,6.80
2023-03-11T10:48:14.092Z,7.00
2023-03-11T10:50:58.245Z,7.10
2023-03-11T10:53:25.008Z,7.20
2023-03-11T10:55:54.120Z,6.90
2023-03-11T10:58:30.082Z,7.00
2023-03-11T11:01:05.280Z,7.20
2023-03-11T11:03:34.223Z,7.00
2023-03-11T11:06:07.369Z,7.00
2023-03-11T11:08:34.664Z,7.30
2023-03-11T11:11:03.764Z,7.30
2023-03-11T11:13:33.242Z,7.20
2023-03-11T11:16:23.227Z,7.10
2023-03-11T11:18:58.601Z,7.30
2023-03-11T11:21:34.051Z,7.30
2023-03-11T11:24:04.902Z,7.20
2023-03-11T11:26:31.626Z,7.20
2023-03-11T11:29:10.099Z,7.20
2023-03-11T11:31:42.195Z,7.30
2023-03-11T11:34:33.392Z,7.40
2023-03-11T11:37:04.251Z,7.10
2023-03-11T11:39:51.504Z,7.20
2023-03-11T11:42:22.447Z,7.10
2023-03-11T11:44:53.130Z,7.20
2023-03-11T11:47:35.972Z,7.20
2023-03-11T11:50:06.222Z,7.20
2023-03-11T11:52:44.757Z,7.00
2023-03-11T11:55:30.105Z,6.90
2023-03-11T11:57:57.423Z,7.00
2023-03-11T12:00:34.122Z,7.10
2023-03-11T12:03:10.397Z,7.00
2023-03-11T12:05:57.753Z,7.00
2023-03-11T12:08:39.896Z,7.10
2023-03-11T12:11:29.092Z,7.10
2023-03-11T12:14:00.532Z,7.10
2023-03-11T12:16:37.785Z,7.50
2023-03-11T12:19:10.494Z,7.70
2023-03-11T12:22:01.714Z,7.70
2023-03-11T12:24:52.343Z,7.50
2023-03-11T12:27:25.344Z,7.50
2023-03-11T12:29:59.223Z,7.40
2023-03-11T12:32:37.804Z,7.40
2023-03-11T12:35:33.041Z,7.30
2023-03-11T12:38:20.187Z,7.20
2023-03-11T12:41:02.685Z,7.10
2023-03-11T12:43:34.951Z,7.10
2023-03-11T12:46:10.224Z,7.20
2023-03-11T12:49:11.675Z,7.40
2023-03-11T12:51:40.048Z,7.60
2023-03-11T12:54:35.426Z,7.80
2023-03-11T12:57:03.582Z,8.00
2023-03-11T12:59:48.143Z,7.90
2023-03-11T13:02:27.453Z,7.90
2023-03-11T13:05:13.131Z,7.60
2023-03-11T13:08:05.699Z,7.80
2023-03-11T13:10:35.855Z,8.10
2023-03-11T13:13:21.836Z,8.30
2023-03-11T13:15:49.079Z,8.30
2023-03-11T13:18:23.661Z,8.40
2023-03-11T13:20:56.061Z,8.40
2023-03-11T13:23:29.443Z,8.50
2023-03-11T13:26:15.008Z,8.40
2023-03-11T13:28:59.780Z,8.50
2023-03-11T13:31:29.891Z,8.40
2023-03-11T13:34:16.880Z,8.40
2023-03-11T13:37:00.914Z,8.10
2023-03-11T13:39:36.300Z,8.10
2023-03-11T13:42:05.701Z,8.30
2023-03-11T13:44:37.147Z,8.40
2023-03-11T13:47:14.368Z,8.50
2023-03-11T13:49:52.785Z,9.00
2023-03-11T13:52:38.215Z,9.20
2023-03-11T13:55:07.243Z,9.60
2023-03-11T13:57:36.748Z,9.50
2023-03-11T14:00:24.004Z,9.10
2023-03-11T14:02:56.170Z,9.50
2023-03-11T14:05:27.286Z,10.00
2023-03-11T14:07:54.288Z,10.40
2023-03-11T14:10:30.030Z,10.70
2023-03-11T14:13:30.597Z,11.50
2023-03-11T14:16:05.904Z,11.60
2023-03-11T14:18:41.476Z,11.40
2023-03-11T14:21:22.161Z,11.60
2023-03-11T14:23:52.192Z,12.20
2023-03-11T14:26:25.392Z,12.50
2023-03-11T14:28:58.907Z,12.40
2023-03-11T14:31:34.524Z,12.10
2023-03-11T14:34:21.867Z,11.20
2023-03-11T14:37:23.654Z,10.50
2023-03-11T14:39:53.401Z,9.80
2023-03-11T14:42:38.625Z,9.40
2023-03-11T14:45:17.957Z,8.90
2023-03-11T14:47:56.367Z,8.10
2023-03-11T14:50:29.207Z,8.00
2023-03-11T14:53:14.271Z,7.90
2023-03-11T14:55:51.879Z,7.70
2023-03-11T14:58:37.006Z,7.50
2023-03-11T15:01:28.988Z,7.50
2023-03-11T15:04:22.934Z,7.50
2023-03-11T15:06:50.767Z,7.40
2023-03-11T15:09:20.334Z,7.20
2023-03-11T15:12:02.225Z,7.20
2023-03-11T15:14:32.444Z,7.20
2023-03-11T15:17:33.110Z,7.30
2023-03-11T15:20:00.943Z,7.10
2023-03-11T15:22:39.903Z,7.20
2023-03-11T15:25:18.302Z,7.20
2023-03-11T15:27:45.484Z,7.40
2023-03-11T15:30:28.255Z,7.40
2023-03-11T15:32:55.904Z,7.60
2023-03-11T15:35:44.013Z,7.60
2023-03-11T15:38:25.486Z,7.50
2023-03-11T15:41:03.846Z,7.40
2023-03-11T15:43:41.401Z,7.40
2023-03-11T15:46:10.968Z,7.30
2023-03-11T15:48:37.840Z,7.40
2023-03-11T15:51:04.814Z,7.40
2023-03-11T15:53:31.728Z,7.50
2023-03-11T15:56:07.748Z,7.40
2023-03-11T15:58:37.441Z,7.40
2023-03-11T16:01:04.383Z,7.50
2023-03-11T16:03:31.637Z,7.30
2023-03-11T16:05:58.762Z,7.30
2023-03-11T16:08:25.863Z,7.10
2023-03-11T16:10:52.618Z,7.00
2023-03-11T16:13:19.368Z,6.90
2023-03-11T16:15:47.167Z,7.00
2023-03-11T16:18:14.276Z,7.00
2023-03-11T16:20:49.827Z,7.10
2023-03-11T16:23:38.654Z,7.10
2023-03-11T16:26:12.736Z,7.10
2023-03-11T16:28:40.210Z,7.10
2023-03-11T16:31:09.547Z,7.10
2023-03-11T16:33:37.123Z,7.00
2023-03-11T16:36:04.720Z,6.90
2023-03-11T16:38:48.909Z,7.00
2023-03-11T16:41:16.780Z,7.00
2023-03-11T16:43:43.748Z,6.90
2023-03-11T16:46:10.485Z,6.80
2023-03-11T16:48:37.358Z,6.90
2023-03-11T16:51:04.335Z,6.90
2023-03-11T16:53:31.653Z,6.80
2023-03-11T16:55:59.692Z,6.70
2023-03-11T16:58:26.700Z,6.70
2023-03-11T17:00:53.514Z,6.60
2023-03-11T17:03:21.874Z,6.60
2023-03-11T17:05:48.829Z,6.60
2023-03-11T17:08:18.240Z,6.60
2023-03-11T17:10:46.757Z,6.50
2023-03-11T17:13:16.524Z,6.50
2023-03-11T17:15:45.897Z,6.50
2023-03-11T17:18:13.673Z,6.40
2023-03-11T17:20:43.396Z,6.30
2023-03-11T17:23:10.455Z,6.40
2023-03-11T17:25:40.584Z,6.30
2023-03-11T17:28:08.002Z,6.20
2023-03-11T17:30:37.257Z,6.20
2023-03-11T17:33:04.539Z,6.20
2023-03-11T17:35:31.435Z,6.20
2023-03-11T17:37:58.426Z,6.20
2023-03-11T17:40:26.812Z,6.20
2023-03-11T17:42:53.617Z,6.10
2023-03-11T17:45:20.448Z,6.10
2023-03-11T17:47:47.247Z,6.00
2023-03-11T17:50:14.078Z,6.00
2023-03-11T17:52:40.981Z,5.90
2023-03-11T17:55:08.340Z,5.90
2023-03-11T17:57:42.954Z,5.90
2023-03-11T18:00:14.694Z,5.90
2023-03-11T18:02:41.751Z,5.80
2023-03-11T18:05:09.591Z,5.70
2023-03-11T18:07:39.312Z,5.80
2023-03-11T18:10:07.818Z,5.80
2023-03-11T18:12:35.122Z,5.70
2023-03-11T18:15:06.101Z,5.70
2023-03-11T18:17:35.107Z,5.60
2023-03-11T18:20:02.397Z,5.60
2023-03-11T18:22:29.343Z,5.50
2023-03-11T18:24:56.138Z,5.50
2023-03-11T18:27:24.462Z,5.50
2023-03-11T18:29:51.562Z,5.50
2023-03-11T18:32:20.710Z,5.40
2023-03-11T18:34:51.234Z,5.40
2023-03-11T18:37:18.193Z,5.40
2023-03-11T18:39:45.010Z,5.40
2023-03-11T18:42:12.864Z,5.40
2023-03-11T18:44:40.466Z,5.40
2023-03-11T18:47:07.216Z,5.40
2023-03-11T18:49:34.072Z,5.40
2023-03-11T18:52:00.870Z,5.40
2023-03-11T18:54:28.219Z,5.40
2023-03-11T18:56:55.435Z,5.40
2023-03-11T18:59:22.157Z,5.30
2023-03-11T19:01:51.955Z,5.30
2023-03-11T19:04:18.817Z,5.30
2023-03-11T19:06:45.896Z,5.40
2023-03-11T19:09:12.867Z,5.50
2023-03-11T19:11:39.609Z,5.50
2023-03-11T19:14:06.344Z,5.50
2023-03-11T19:16:33.214Z,5.50
2023-03-11T19:19:00.321Z,5.50
2023-03-11T19:21:27.630Z,5.50
2023-03-11T19:23:55.321Z,5.50
2023-03-11T19:26:33.734Z,5.40
2023-03-11T19:29:08.877Z,5.40
2023-03-11T19:31:35.786Z,5.30
2023-03-11T19:34:03.632Z,5.30
2023-03-11T19:36:30.574Z,5.30
2023-03-11T19:38:57.503Z,5.30
2023-03-11T19:41:24.279Z,5.30
2023-03-11T19:43:51.843Z,5.30
2023-03-11T19:46:21.255Z,5.30
2023-03-11T19:48:48.104Z,5.30
2023-03-11T19:51:17.109Z,5.20
2023-03-11T19:53:44.094Z,5.20
2023-03-11T19:56:11.290Z,5.20
2023-03-11T19:58:38.167Z,5.20
2023-03-11T20:01:05.232Z,5.30
2023-03-11T20:03:32.051Z,5.20
2023-03-11T20:06:05.454Z,5.20
2023-03-11T20:08:36.735Z,5.30
2023-03-11T20:11:05.297Z,5.30
2023-03-11T20:13:33.454Z,5.30
2023-03-11T20:16:08.245Z,5.30
2023-03-11T20:18:35.147Z,5.30
2023-03-11T20:21:11.002Z,5.30
2023-03-11T20:23:38.934Z,5.20
2023-03-11T20:26:14.623Z,5.20
2023-03-11T20:28:41.467Z,5.30
2023-03-11T20:31:22.390Z,5.30
2023-03-11T20:33:50.287Z,5.20
2023-03-11T20:36:21.139Z,5.20
2023-03-11T20:38:49.467Z,5.30
2023-03-11T20:41:16.276Z,5.30
2023-03-11T20:43:43.871Z,5.30
2023-03-11T20:46:11.352Z,5.30
2023-03-11T20:48:39.279Z,5.20
2023-03-11T20:51:08.706Z,5.20
2023-03-11T20:53:35.429Z,5.20
2023-03-11T20:56:09.083Z,5.10
2023-03-11T20:58:36.617Z,5.20
2023-03-11T21:01:21.853Z,5.10
2023-03-11T21:03:49.415Z,5.10
2023-03-11T21:06:22.905Z,5.00
2023-03-11T21:08:50.032Z,5.00
2023-03-11T21:11:17.592Z,4.90
2023-03-11T21:13:44.513Z,4.90
2023-03-11T21:16:11.381Z,4.90
2023-03-11T21:18:38.280Z,4.90
2023-03-11T21:21:08.388Z,4.80
2023-03-11T21:23:35.852Z,4.70
2023-03-11T21:26:03.899Z,4.60
2023-03-11T21:28:31.454Z,4.50
2023-03-11T21:31:03.789Z,4.40
2023-03-11T21:33:31.390Z,4.30
2023-03-11T21:35:59.988Z,4.20
2023-03-11T21:38:27.923Z,4.10
2023-03-11T21:41:04.050Z,4.00
2023-03-11T21:43:30.787Z,3.90
2023-03-11T21:45:57.678Z,3.90
2023-03-11T21:48:24.573Z,3.70
2023-03-11T21:50:52.306Z,3.70
2023-03-11T21:53:19.151Z,3.60
2023-03-11T21:55:47.237Z,3.60
2023-03-11T21:58:15.107Z,3.50
2023-03-11T22:00:42.154Z,3.50
2023-03-11T22:03:09.000Z,3.40
2023-03-11T22:05:35.771Z,3.40
2023-03-11T22:08:03.020Z,3.30
2023-03-11T22:10:31.438Z,3.30
2023-03-11T22:12:58.449Z,3.30
2023-03-11T22:15:25.261Z,3.30
2023-03-11T22:17:52.012Z,3.20
2023-03-11T22:20:19.037Z,3.20
2023-03-11T22:22:45.796Z,3.20
2023-03-11T22:25:12.592Z,3.20
2023-03-11T22:27:40.278Z,3.20
2023-03-11T22:30:08.121Z,3.20
2023-03-11T22:32:35.418Z,3.10
2023-03-11T22:35:02.160Z,3.20
2023-03-11T22:37:28.830Z,3.20
2023-03-11T22:39:55.544Z,3.20
2023-03-11T22:42:22.439Z,3.20
2023-03-11T22:44:49.291Z,3.20
2023-03-11T22:47:16.110Z,3.20
2023-03-11T22:49:42.990Z,3.20
2023-03-11T22:52:09.773Z,3.30
2023-03-11T22:54:37.531Z,3.30
2023-03-11T22:57:04.377Z,3.30
2023-03-11T22:59:31.119Z,3.20
2023-03-11T23:01:57.881Z,3.30
2023-03-11T23:04:24.772Z,3.30
2023-03-11T23:06:54.312Z,3.40
2023-03-11T23:09:22.624Z,3.40
2023-03-11T23:11:50.444Z,3.40
2023-03-11T23:14:17.636Z,3.40
2023-03-11T23:16:44.541Z,3.30
2023-03-11T23:19:12.403Z,3.30
2023-03-11T23:21:39.316Z,3.30
2023-03-11T23:24:08.785Z,3.30
2023-03-11T23:26:35.956Z,3.20
2023-03-11T23:29:03.934Z,3.20
2023-03-11T23:31:31.220Z,3.20
2023-03-11T23:33:58.155Z,3.30
2023-03-11T23:36:30.371Z,3.40
2023-03-11T23:38:58.344Z,3.40
2023-03-11T23:41:25.473Z,3.40
2023-03-11T23:43:52.457Z,3.40
2023-03-11T23:46:19.356Z,3.40
2023-03-11T23:48:46.266Z,3.40
2023-03-11T23:51:13.073Z,3.40
2023-03-11T23:53:40.005Z,3.40
2023-03-11T23:56:16.903Z,3.40
2023-03-11T23:58:44.012Z,3.40
